Histon, United Kingdom
Current Conditions -  °F | °C
As of 5:58 AM on Sunday 23 Nov 2014 (Local Time) from EGUN Reporting Station
Moderate Rain Moderate Rain  
Wind Chill: 51°   Ceiling: 300
Heat Index: 51°   Visibility: 3mi
Dew Point: 51°   Wind: 10mph
Humidity: 98%   Direction: 310°NW
Pressure: 29.97"   Gusts: NA
Location:  52.25°N, 0.11°E
Report Text: EGUN 230558Z AUTO 31009KT 5000 R29/1200 RA BR OVC003 11/10 A2997 RMK AO2 SLP152 T01070104 10126 20107 53002
Loading
Personal Weather Stations






























Interactive Weather Map New forecast layout! Learn more

10-Day Weather Forecast

Advertisements
Track Severe Weather on mobile